createdAt,value
2018-08-24T00:00:52.838Z,19.70
2018-08-24T00:01:58.976Z,19.65
2018-08-24T00:03:04.404Z,19.52
2018-08-24T00:04:10.369Z,19.44
2018-08-24T00:05:16.674Z,19.36
2018-08-24T00:06:23.013Z,19.29
2018-08-24T00:07:29.386Z,19.27
2018-08-24T00:08:35.992Z,19.34
2018-08-24T00:09:42.233Z,19.58
2018-08-24T00:10:48.351Z,19.70
2018-08-24T00:11:55.207Z,19.67
2018-08-24T00:13:01.576Z,19.49
2018-08-24T00:14:07.691Z,19.08
2018-08-24T00:15:13.788Z,19.04
2018-08-24T00:16:19.727Z,19.07
2018-08-24T00:17:25.463Z,19.01
2018-08-24T00:18:36.512Z,19.14
2018-08-24T00:19:42.758Z,19.29
2018-08-24T00:20:49.068Z,19.18
2018-08-24T00:21:55.420Z,19.02
2018-08-24T00:23:01.653Z,18.94
2018-08-24T00:24:06.980Z,19.05
2018-08-24T00:25:13.369Z,19.17
2018-08-24T00:26:19.604Z,19.51
2018-08-24T00:27:25.991Z,19.66
2018-08-24T00:28:32.259Z,19.43
2018-08-24T00:29:38.504Z,19.30
2018-08-24T00:30:44.759Z,19.18
2018-08-24T00:31:51.138Z,18.98
2018-08-24T00:32:58.156Z,18.77
2018-08-24T00:34:04.026Z,19.03
2018-08-24T00:35:10.383Z,19.21
2018-08-24T00:36:16.720Z,18.89
2018-08-24T00:37:22.677Z,18.97
2018-08-24T00:38:29.039Z,19.27
2018-08-24T00:39:35.329Z,19.52
2018-08-24T00:40:41.636Z,19.62
2018-08-24T00:41:47.976Z,19.57
2018-08-24T00:42:54.262Z,19.55
2018-08-24T00:44:01.308Z,19.55
2018-08-24T00:45:07.063Z,19.50
2018-08-24T00:46:13.327Z,19.55
2018-08-24T00:47:19.611Z,19.34
2018-08-24T00:48:25.570Z,19.15
2018-08-24T00:49:31.974Z,19.37
2018-08-24T00:50:38.265Z,19.50
2018-08-24T00:51:44.377Z,19.44
2018-08-24T00:52:50.461Z,19.20
2018-08-24T00:53:56.453Z,19.04
2018-08-24T00:55:02.803Z,18.73
2018-08-24T00:56:08.752Z,18.53
2018-08-24T00:57:14.804Z,18.49
2018-08-24T00:58:25.324Z,18.45
2018-08-24T00:59:30.976Z,18.53
2018-08-24T01:00:36.968Z,18.59
2018-08-24T01:01:47.232Z,18.62
2018-08-24T01:02:53.985Z,18.69
2018-08-24T01:04:00.385Z,18.74
2018-08-24T01:05:05.680Z,18.87
2018-08-24T01:06:11.844Z,18.87
2018-08-24T01:07:17.854Z,19.04
2018-08-24T01:08:24.192Z,19.24
2018-08-24T01:09:30.260Z,19.30
2018-08-24T01:10:36.119Z,19.11
2018-08-24T01:11:42.147Z,19.01
2018-08-24T01:12:48.583Z,18.93
2018-08-24T01:13:54.692Z,18.95
2018-08-24T01:15:01.029Z,18.98
2018-08-24T01:16:07.429Z,18.97
2018-08-24T01:17:12.800Z,18.96
2018-08-24T01:18:18.621Z,18.97
2018-08-24T01:19:24.922Z,19.01
2018-08-24T01:20:30.970Z,19.13
2018-08-24T01:21:37.225Z,19.24
2018-08-24T01:22:43.557Z,19.14
2018-08-24T01:23:49.471Z,19.04
2018-08-24T01:24:55.917Z,18.83
2018-08-24T01:26:02.613Z,18.66
2018-08-24T01:27:08.927Z,18.56
2018-08-24T01:28:15.232Z,18.52
2018-08-24T01:29:21.325Z,18.74
2018-08-24T01:30:27.664Z,19.11
2018-08-24T01:31:33.960Z,19.39
2018-08-24T01:32:40.293Z,19.57
2018-08-24T01:33:46.483Z,19.66
2018-08-24T01:34:52.802Z,19.59
2018-08-24T01:35:58.891Z,19.39
2018-08-24T01:37:04.500Z,19.27
2018-08-24T01:38:10.933Z,19.18
2018-08-24T01:39:16.985Z,19.18
2018-08-24T01:40:23.384Z,19.09
2018-08-24T01:41:29.649Z,19.10
2018-08-24T01:42:35.944Z,19.12
2018-08-24T01:43:42.276Z,19.04
2018-08-24T01:44:48.231Z,19.29
2018-08-24T01:45:54.331Z,19.57
2018-08-24T01:47:00.253Z,19.62
2018-08-24T01:48:06.008Z,19.58
2018-08-24T01:49:11.979Z,19.56
2018-08-24T01:50:18.307Z,19.55
2018-08-24T01:51:24.400Z,19.68
2018-08-24T01:52:30.716Z,19.65
2018-08-24T01:53:36.359Z,19.78
2018-08-24T01:54:42.406Z,19.71
2018-08-24T01:55:48.755Z,19.63
2018-08-24T01:56:55.032Z,19.58
2018-08-24T01:58:01.052Z,19.55
2018-08-24T01:59:07.444Z,19.68
2018-08-24T02:00:14.112Z,19.74
2018-08-24T02:01:20.733Z,19.72
2018-08-24T02:02:27.112Z,19.68
2018-08-24T02:03:33.435Z,19.64
2018-08-24T02:04:39.713Z,19.61
2018-08-24T02:05:46.060Z,19.57
2018-08-24T02:06:52.049Z,19.61
2018-08-24T02:07:58.089Z,19.71
2018-08-24T02:09:03.399Z,19.74
2018-08-24T02:10:09.184Z,19.71
2018-08-24T02:11:15.261Z,19.76
2018-08-24T02:12:21.392Z,19.74
2018-08-24T02:15:01.847Z,20.25
2018-08-24T02:16:08.972Z,20.20
2018-08-24T02:17:15.053Z,20.17
2018-08-24T02:19:52.704Z,20.21
2018-08-24T02:21:13.167Z,19.99
2018-08-24T02:22:19.328Z,19.74
2018-08-24T02:23:25.720Z,19.63
2018-08-24T02:24:32.114Z,19.67
2018-08-24T02:25:38.467Z,19.72
2018-08-24T02:26:44.755Z,19.74
2018-08-24T02:27:51.765Z,19.63
2018-08-24T02:28:58.091Z,19.65
2018-08-24T02:30:03.691Z,19.70
2018-08-24T02:31:09.709Z,19.74
2018-08-24T02:32:15.985Z,19.70
2018-08-24T02:33:22.581Z,19.60
2018-08-24T02:34:28.632Z,19.53
2018-08-24T02:35:35.072Z,19.52
2018-08-24T02:36:41.375Z,19.73
2018-08-24T02:37:47.451Z,19.79
2018-08-24T02:38:53.548Z,19.84
2018-08-24T02:39:59.583Z,19.82
2018-08-24T02:41:05.967Z,19.72
2018-08-24T02:42:12.393Z,19.74
2018-08-24T02:43:18.740Z,19.83
2018-08-24T02:44:25.258Z,19.95
2018-08-24T02:45:30.520Z,20.09
2018-08-24T02:46:36.859Z,20.10
2018-08-24T02:47:43.263Z,20.01
2018-08-24T02:49:04.539Z,19.96
2018-08-24T02:50:11.566Z,20.12
2018-08-24T02:51:18.042Z,20.29
2018-08-24T02:52:24.853Z,20.10
2018-08-24T02:53:31.190Z,19.95
2018-08-24T02:54:37.191Z,19.88
2018-08-24T02:55:43.313Z,19.78
2018-08-24T02:56:49.327Z,19.72
2018-08-24T02:57:55.743Z,19.89
2018-08-24T02:59:02.013Z,19.88
2018-08-24T03:00:08.415Z,19.90
2018-08-24T03:01:14.975Z,19.97
2018-08-24T03:02:21.473Z,19.82
2018-08-24T03:03:27.477Z,19.83
2018-08-24T03:04:34.088Z,19.80
2018-08-24T03:05:40.007Z,19.82
2018-08-24T03:06:46.213Z,19.81
2018-08-24T03:07:52.220Z,19.93
2018-08-24T03:08:58.260Z,19.92
2018-08-24T03:10:04.535Z,19.91
2018-08-24T03:11:10.818Z,19.76
2018-08-24T03:12:17.211Z,19.74
2018-08-24T03:13:24.114Z,19.79
2018-08-24T03:14:30.482Z,19.73
2018-08-24T03:15:36.834Z,19.76
2018-08-24T03:16:42.724Z,19.87
2018-08-24T03:17:48.803Z,19.90
2018-08-24T03:18:55.437Z,20.04
2018-08-24T03:20:01.845Z,20.07
2018-08-24T03:21:08.175Z,20.20
2018-08-24T03:22:14.465Z,20.29
2018-08-24T03:23:20.789Z,20.37
2018-08-24T03:24:27.100Z,20.25
2018-08-24T03:25:33.435Z,20.24
2018-08-24T03:26:39.400Z,20.20
2018-08-24T03:27:45.841Z,20.18
2018-08-24T03:28:51.957Z,20.25
2018-08-24T03:29:58.245Z,20.20
2018-08-24T03:31:04.371Z,20.10
2018-08-24T03:32:10.683Z,20.42
2018-08-24T03:33:16.973Z,20.45
2018-08-24T03:34:23.429Z,20.15
2018-08-24T03:35:30.056Z,19.95
2018-08-24T03:36:36.326Z,19.97
2018-08-24T03:37:42.319Z,20.06
2018-08-24T03:38:48.669Z,20.09
2018-08-24T03:39:55.148Z,20.04
2018-08-24T03:41:01.197Z,20.27
2018-08-24T03:42:06.584Z,20.25
2018-08-24T03:43:12.572Z,20.23
2018-08-24T03:44:18.617Z,20.27
2018-08-24T03:45:24.532Z,20.38
2018-08-24T03:46:31.004Z,20.47
2018-08-24T03:47:37.323Z,20.41
2018-08-24T03:48:43.641Z,20.37
2018-08-24T03:49:49.921Z,20.32
2018-08-24T03:50:56.022Z,20.20
2018-08-24T03:52:02.136Z,20.18
2018-08-24T03:53:08.462Z,20.17
2018-08-24T03:54:14.960Z,20.31
2018-08-24T03:55:20.952Z,20.33
2018-08-24T03:56:27.318Z,20.33
2018-08-24T03:57:35.574Z,20.38
2018-08-24T03:58:52.926Z,20.31
2018-08-24T04:00:02.878Z,20.50
2018-08-24T04:01:09.027Z,20.59
2018-08-24T04:02:15.353Z,20.47
2018-08-24T04:03:21.942Z,20.41
2018-08-24T04:04:27.983Z,20.60
2018-08-24T04:05:34.018Z,20.75
2018-08-24T04:06:40.072Z,20.79
2018-08-24T04:07:46.003Z,20.54
2018-08-24T04:08:52.535Z,20.49
2018-08-24T04:09:58.797Z,20.39
2018-08-24T04:11:04.785Z,20.51
2018-08-24T04:12:11.407Z,20.58
2018-08-24T04:13:17.825Z,20.53
2018-08-24T04:14:24.045Z,20.49
2018-08-24T04:15:30.228Z,20.21
2018-08-24T04:16:36.049Z,20.34
2018-08-24T04:17:42.256Z,20.44
2018-08-24T04:18:48.581Z,20.34
2018-08-24T04:19:54.614Z,20.27
2018-08-24T04:21:00.720Z,20.37
2018-08-24T04:22:06.720Z,20.44
2018-08-24T04:23:13.007Z,20.29
2018-08-24T04:24:19.318Z,20.23
2018-08-24T04:25:25.640Z,20.47
2018-08-24T04:26:32.686Z,20.68
2018-08-24T04:27:38.842Z,20.76
2018-08-24T04:28:45.287Z,20.78
2018-08-24T04:29:51.911Z,20.79
2018-08-24T04:30:58.332Z,20.74
2018-08-24T04:32:04.105Z,20.16
2018-08-24T04:33:10.195Z,19.88
2018-08-24T04:34:15.516Z,19.86
2018-08-24T04:35:22.229Z,19.84
2018-08-24T04:36:28.567Z,19.69
2018-08-24T04:37:34.847Z,19.55
2018-08-24T04:38:41.340Z,19.77
2018-08-24T04:39:48.579Z,19.90
2018-08-24T04:40:55.686Z,19.84
2018-08-24T04:42:05.881Z,19.87
2018-08-24T04:43:13.623Z,20.19
2018-08-24T04:44:21.013Z,20.18
2018-08-24T04:45:27.877Z,19.80
2018-08-24T04:46:34.360Z,19.75
2018-08-24T04:47:40.479Z,19.89
2018-08-24T04:48:46.791Z,19.82
2018-08-24T04:49:53.076Z,19.56
2018-08-24T04:50:59.179Z,19.41
2018-08-24T04:52:05.531Z,19.59
2018-08-24T04:53:11.853Z,19.80
2018-08-24T04:54:18.130Z,19.76
2018-08-24T04:55:24.530Z,19.66
2018-08-24T04:56:30.892Z,19.98
2018-08-24T04:57:37.413Z,20.25
2018-08-24T04:58:43.672Z,20.35
2018-08-24T04:59:49.726Z,20.32
2018-08-24T05:01:06.480Z,20.17
2018-08-24T05:02:27.765Z,19.95
2018-08-24T05:03:48.501Z,19.83
2018-08-24T05:04:57.563Z,19.78
2018-08-24T05:06:03.778Z,20.02
2018-08-24T05:07:10.067Z,20.25
2018-08-24T05:08:16.376Z,20.28
2018-08-24T05:09:22.667Z,20.26
2018-08-24T05:10:29.509Z,20.28
2018-08-24T05:11:37.237Z,20.23
2018-08-24T05:12:43.503Z,20.24
2018-08-24T05:13:49.748Z,20.22
2018-08-24T05:14:56.522Z,20.27
2018-08-24T05:16:02.709Z,20.22
2018-08-24T05:17:09.397Z,20.13
2018-08-24T05:18:15.720Z,20.10
2018-08-24T05:19:29.629Z,20.21
2018-08-24T05:20:44.272Z,20.14
2018-08-24T05:22:02.433Z,20.22
2018-08-24T05:23:20.210Z,20.38
2018-08-24T05:24:29.999Z,20.43
2018-08-24T05:25:37.599Z,20.44
2018-08-24T05:26:44.640Z,20.57
2018-08-24T05:27:51.509Z,20.57
2018-08-24T05:28:57.529Z,20.55
2018-08-24T05:30:03.873Z,20.49
2018-08-24T05:31:10.151Z,20.28
2018-08-24T05:32:16.496Z,20.23
2018-08-24T05:33:22.432Z,20.04
2018-08-24T05:34:28.792Z,19.86
2018-08-24T05:35:35.375Z,19.93
2018-08-24T05:36:42.070Z,19.84
2018-08-24T05:37:48.481Z,20.01
2018-08-24T05:38:54.779Z,20.19
2018-08-24T05:40:01.063Z,20.25
2018-08-24T05:41:07.657Z,20.21
2018-08-24T05:42:14.035Z,20.16
2018-08-24T05:43:20.308Z,20.15
2018-08-24T05:44:26.624Z,20.08
2018-08-24T05:45:32.937Z,20.22
2018-08-24T05:46:39.388Z,20.42
2018-08-24T05:47:46.095Z,20.30
2018-08-24T05:48:52.464Z,20.14
2018-08-24T05:49:58.665Z,19.97
2018-08-24T05:51:04.713Z,19.95
2018-08-24T05:52:11.000Z,19.91
2018-08-24T05:53:17.008Z,19.96
2018-08-24T05:54:23.447Z,20.00
2018-08-24T05:55:30.579Z,20.08
2018-08-24T05:56:38.041Z,20.03
2018-08-24T05:57:44.428Z,20.06
2018-08-24T05:58:50.580Z,20.01
2018-08-24T05:59:56.822Z,20.05
2018-08-24T06:01:02.954Z,20.16
2018-08-24T06:02:09.616Z,20.10
2018-08-24T06:03:16.282Z,20.18
2018-08-24T06:04:22.683Z,20.32
2018-08-24T06:05:28.685Z,20.66
2018-08-24T06:06:34.698Z,20.79
2018-08-24T06:07:40.960Z,20.91
2018-08-24T06:08:47.144Z,20.77
2018-08-24T06:09:53.537Z,20.58
2018-08-24T06:10:59.296Z,20.38
2018-08-24T06:12:05.099Z,20.47
2018-08-24T06:13:10.937Z,20.58
2018-08-24T06:14:16.942Z,20.70
2018-08-24T06:15:22.513Z,20.79
2018-08-24T06:16:28.428Z,20.85
2018-08-24T06:17:34.793Z,21.02
2018-08-24T06:18:41.179Z,21.19
2018-08-24T06:19:47.753Z,21.33
2018-08-24T06:20:54.085Z,21.34
2018-08-24T06:22:00.454Z,21.25
2018-08-24T06:23:06.749Z,21.12
2018-08-24T06:24:13.063Z,21.17
2018-08-24T06:25:19.049Z,21.36
2018-08-24T06:26:25.456Z,21.49
2018-08-24T06:27:31.878Z,21.55
2018-08-24T06:28:38.230Z,21.62
2018-08-24T06:29:45.309Z,21.55
2018-08-24T06:30:51.906Z,21.49
2018-08-24T06:31:58.135Z,21.40
2018-08-24T06:33:04.096Z,21.48
2018-08-24T06:34:10.179Z,21.49
2018-08-24T06:35:16.473Z,21.59
2018-08-24T06:36:22.908Z,21.81
2018-08-24T06:37:28.914Z,21.85
2018-08-24T06:38:35.226Z,21.92
2018-08-24T06:39:41.535Z,21.78
2018-08-24T06:40:48.843Z,21.82
2018-08-24T06:41:54.901Z,21.78
2018-08-24T06:43:01.376Z,21.90
2018-08-24T06:44:07.703Z,21.97
2018-08-24T06:45:14.044Z,21.96
2018-08-24T06:46:20.242Z,21.96
2018-08-24T06:47:26.641Z,22.02
2018-08-24T06:48:33.065Z,22.01
2018-08-24T06:49:39.578Z,22.06
2018-08-24T06:50:45.894Z,22.07
2018-08-24T06:51:52.212Z,22.00
2018-08-24T06:52:58.213Z,22.02
2018-08-24T06:54:05.039Z,22.25
2018-08-24T06:55:11.315Z,22.20
2018-08-24T06:56:17.664Z,22.17
2018-08-24T06:57:23.942Z,22.25
2018-08-24T06:58:30.285Z,21.97
2018-08-24T06:59:38.154Z,22.05
2018-08-24T07:00:44.743Z,21.88
2018-08-24T07:01:51.016Z,21.92
2018-08-24T07:02:58.061Z,22.06
2018-08-24T07:04:04.011Z,22.26
2018-08-24T07:05:10.373Z,22.29
2018-08-24T07:06:16.709Z,22.34
2018-08-24T07:07:22.997Z,22.30
2018-08-24T07:08:29.208Z,22.04
2018-08-24T07:09:35.149Z,22.10
2018-08-24T07:10:41.569Z,22.19
2018-08-24T07:11:47.575Z,22.34
2018-08-24T07:12:53.679Z,22.36
2018-08-24T07:14:00.201Z,22.53
2018-08-24T07:15:05.613Z,22.54
2018-08-24T07:16:11.654Z,22.55
2018-08-24T07:17:17.737Z,22.44
2018-08-24T07:18:24.090Z,22.50
2018-08-24T07:19:30.592Z,22.68
2018-08-24T07:20:36.944Z,22.66
2018-08-24T07:21:43.196Z,22.56
2018-08-24T07:22:49.650Z,22.49
2018-08-24T07:23:58.260Z,22.34
2018-08-24T07:25:04.151Z,22.45
2018-08-24T07:26:10.622Z,22.60
2018-08-24T07:27:16.854Z,22.50
2018-08-24T07:28:23.181Z,22.52
2018-08-24T07:29:29.445Z,22.41
2018-08-24T07:30:35.766Z,22.63
2018-08-24T07:31:42.083Z,22.71
2018-08-24T07:32:48.390Z,22.66
2018-08-24T07:33:55.412Z,22.45
2018-08-24T07:35:01.411Z,22.47
2018-08-24T07:36:07.757Z,22.55
2018-08-24T07:37:14.486Z,22.55
2018-08-24T07:38:20.780Z,22.40
2018-08-24T07:39:27.112Z,22.42
2018-08-24T07:40:33.433Z,22.61
2018-08-24T07:41:39.760Z,22.64
2018-08-24T07:42:45.900Z,22.43
2018-08-24T07:43:52.155Z,22.53
2018-08-24T07:44:58.210Z,22.72
2018-08-24T07:46:04.530Z,22.96
2018-08-24T07:47:10.980Z,22.80
2018-08-24T07:48:17.262Z,22.69
2018-08-24T07:49:23.598Z,22.89
2018-08-24T07:50:30.104Z,22.94
2018-08-24T07:51:36.412Z,22.88
2018-08-24T07:52:42.696Z,22.84
2018-08-24T07:53:48.917Z,22.78
2018-08-24T07:54:54.886Z,22.88
2018-08-24T07:56:01.007Z,23.05
2018-08-24T07:57:08.176Z,23.21
2018-08-24T07:58:14.342Z,23.22
2018-08-24T07:59:20.583Z,23.19
2018-08-24T08:00:26.884Z,22.96
2018-08-24T08:01:32.905Z,22.71
2018-08-24T08:02:38.648Z,22.66
2018-08-24T08:03:45.073Z,22.91
2018-08-24T08:04:51.091Z,22.88
2018-08-24T08:05:57.121Z,22.86
2018-08-24T08:07:03.490Z,23.02
2018-08-24T08:08:09.581Z,23.03
2018-08-24T08:09:15.626Z,23.10
2018-08-24T08:10:21.977Z,23.07
2018-08-24T08:11:27.862Z,23.06
2018-08-24T08:12:34.260Z,23.09
2018-08-24T08:13:40.423Z,23.16
2018-08-24T08:14:46.453Z,23.17
2018-08-24T08:15:52.741Z,23.24
2018-08-24T08:16:59.490Z,23.13
2018-08-24T08:18:05.790Z,23.28
2018-08-24T08:19:12.271Z,23.27
2018-08-24T08:20:18.386Z,23.22
2018-08-24T08:21:24.701Z,23.25
2018-08-24T08:22:31.007Z,23.31
2018-08-24T08:23:37.298Z,23.29
2018-08-24T08:24:54.280Z,23.53
2018-08-24T08:26:04.096Z,23.67
2018-08-24T08:27:10.375Z,23.74
2018-08-24T08:28:16.667Z,23.93
2018-08-24T08:29:22.762Z,23.91
2018-08-24T08:30:29.076Z,23.93
2018-08-24T08:31:35.216Z,23.93
2018-08-24T08:32:50.298Z,23.90
2018-08-24T08:34:00.345Z,23.93
2018-08-24T08:35:06.495Z,23.90
2018-08-24T08:36:12.516Z,24.06
2018-08-24T08:37:18.750Z,24.03
2018-08-24T08:38:33.794Z,24.19
2018-08-24T08:39:50.938Z,24.10
2018-08-24T08:40:57.117Z,24.21
2018-08-24T08:42:03.440Z,24.20
2018-08-24T08:43:09.521Z,24.22
2018-08-24T08:44:16.120Z,24.18
2018-08-24T08:45:23.123Z,24.04
2018-08-24T08:46:29.511Z,23.97
2018-08-24T08:47:36.523Z,23.96
2018-08-24T08:48:43.079Z,23.89
2018-08-24T08:49:49.342Z,23.88
2018-08-24T08:50:55.663Z,23.66
2018-08-24T08:52:01.673Z,23.57
2018-08-24T08:53:08.172Z,23.70
2018-08-24T08:54:14.474Z,23.76
2018-08-24T08:55:20.788Z,23.83
2018-08-24T08:56:26.561Z,23.79
2018-08-24T08:57:32.590Z,23.69
2018-08-24T08:58:38.810Z,23.72
2018-08-24T08:59:45.817Z,23.85
2018-08-24T09:00:52.166Z,23.94
2018-08-24T09:01:58.350Z,23.89
2018-08-24T09:03:04.615Z,23.93
2018-08-24T09:04:11.553Z,23.98
2018-08-24T09:05:17.744Z,24.02
2018-08-24T09:06:24.696Z,24.07
2018-08-24T09:07:31.280Z,24.12
2018-08-24T09:08:37.579Z,24.04
2018-08-24T09:09:43.906Z,24.04
2018-08-24T09:10:50.691Z,23.83
2018-08-24T09:11:56.943Z,23.92
2018-08-24T09:13:03.335Z,23.75
2018-08-24T09:14:09.954Z,23.75
2018-08-24T09:15:16.259Z,23.74
2018-08-24T09:16:22.536Z,23.82
2018-08-24T09:17:28.273Z,23.74
2018-08-24T09:18:39.807Z,23.81
2018-08-24T09:21:40.452Z,23.81
2018-08-24T09:23:05.020Z,23.87
2018-08-24T09:26:01.638Z,23.69
2018-08-24T09:27:22.321Z,23.56
2018-08-24T09:28:28.467Z,23.71
2018-08-24T09:29:34.630Z,23.86
2018-08-24T09:30:40.894Z,23.88
2018-08-24T09:31:46.925Z,23.72
2018-08-24T09:32:53.311Z,23.72
2018-08-24T09:33:59.966Z,23.62
2018-08-24T09:35:05.780Z,23.56
2018-08-24T09:36:11.962Z,23.65
2018-08-24T09:37:18.292Z,23.27
2018-08-24T09:38:24.586Z,22.26
2018-08-24T09:39:30.836Z,21.93
2018-08-24T09:40:36.937Z,21.49
2018-08-24T09:41:43.248Z,21.07
2018-08-24T09:42:49.703Z,20.93
2018-08-24T09:43:56.137Z,21.20
2018-08-24T09:45:02.488Z,21.16
2018-08-24T09:46:08.624Z,21.48
2018-08-24T09:47:14.361Z,21.28
2018-08-24T09:48:28.121Z,20.69
2018-08-24T09:49:34.112Z,20.39
2018-08-24T09:50:40.157Z,20.58
2018-08-24T09:51:46.587Z,20.62
2018-08-24T09:52:52.524Z,20.60
2018-08-24T09:54:00.516Z,20.92
2018-08-24T09:55:06.131Z,21.15
2018-08-24T09:56:12.489Z,21.04
2018-08-24T09:57:18.621Z,20.69
2018-08-24T09:58:24.915Z,20.75
2018-08-24T09:59:31.329Z,20.86
2018-08-24T10:00:37.773Z,21.05
2018-08-24T10:01:49.505Z,21.16
2018-08-24T10:02:55.664Z,21.03
2018-08-24T10:05:48.679Z,20.64
2018-08-24T10:07:24.537Z,20.41
2018-08-24T10:08:30.721Z,20.40
2018-08-24T10:09:37.006Z,20.56
2018-08-24T10:10:43.328Z,20.83
2018-08-24T10:11:49.629Z,20.62
2018-08-24T10:12:55.975Z,20.63
2018-08-24T10:14:02.401Z,20.92
2018-08-24T10:15:08.319Z,21.02
2018-08-24T10:16:14.260Z,21.12
2018-08-24T10:17:20.366Z,21.04
2018-08-24T10:18:26.604Z,21.27
2018-08-24T10:19:32.932Z,21.38
2018-08-24T10:20:39.197Z,21.25
2018-08-24T10:21:45.554Z,21.55
2018-08-24T10:22:52.326Z,21.58
2018-08-24T10:23:58.368Z,21.87
2018-08-24T10:25:03.964Z,21.96
2018-08-24T10:26:09.945Z,21.70
2018-08-24T10:27:16.252Z,21.74
2018-08-24T10:28:22.591Z,21.56
2018-08-24T10:29:29.029Z,21.78
2018-08-24T10:30:35.535Z,21.99
2018-08-24T10:31:41.823Z,22.05
2018-08-24T10:32:48.040Z,22.08
2018-08-24T10:33:54.466Z,21.88
2018-08-24T10:35:00.868Z,21.81
2018-08-24T10:36:07.163Z,21.99
2018-08-24T10:37:13.547Z,22.25
2018-08-24T10:38:20.495Z,22.44
2018-08-24T10:39:26.776Z,22.64
2018-08-24T10:40:33.030Z,22.78
2018-08-24T10:41:39.407Z,22.46
2018-08-24T10:42:45.653Z,22.10
2018-08-24T10:43:52.004Z,21.94
2018-08-24T10:44:58.296Z,22.20
2018-08-24T10:46:04.583Z,22.60
2018-08-24T10:47:11.594Z,22.76
2018-08-24T10:48:18.739Z,22.71
2018-08-24T10:49:25.787Z,22.67
2018-08-24T10:50:32.700Z,22.70
2018-08-24T10:51:38.875Z,23.19
2018-08-24T10:52:45.128Z,23.42
2018-08-24T10:53:51.110Z,23.50
2018-08-24T10:54:57.452Z,23.47
2018-08-24T10:56:03.807Z,23.57
2018-08-24T10:57:10.269Z,23.70
2018-08-24T10:58:16.595Z,23.37
2018-08-24T10:59:22.924Z,23.50
2018-08-24T11:00:29.200Z,23.73
2018-08-24T11:01:35.576Z,23.93
2018-08-24T11:02:41.932Z,24.09
2018-08-24T11:03:48.287Z,23.53
2018-08-24T11:04:55.022Z,23.83
2018-08-24T11:06:00.984Z,23.78
2018-08-24T11:07:07.294Z,23.97
2018-08-24T11:08:13.608Z,23.98
2018-08-24T11:09:19.603Z,24.09
2018-08-24T11:10:26.559Z,24.23
2018-08-24T11:11:32.879Z,24.29
2018-08-24T11:12:39.390Z,24.30
2018-08-24T11:13:45.468Z,24.39
2018-08-24T11:14:51.830Z,24.38
2018-08-24T11:15:58.095Z,24.33
2018-08-24T11:17:03.724Z,24.28
2018-08-24T11:18:10.024Z,24.23
2018-08-24T11:19:16.340Z,24.21
2018-08-24T11:20:23.436Z,24.24
2018-08-24T11:21:30.164Z,24.29
2018-08-24T11:22:36.476Z,24.33
2018-08-24T11:23:42.773Z,24.14
2018-08-24T11:24:49.832Z,24.30
2018-08-24T11:25:56.127Z,24.31
2018-08-24T11:27:01.788Z,24.41
2018-08-24T11:28:08.008Z,24.50
2018-08-24T11:29:14.425Z,24.51
2018-08-24T11:30:20.968Z,24.52
2018-08-24T11:31:27.304Z,24.43
2018-08-24T11:32:33.600Z,24.12
2018-08-24T11:33:39.909Z,23.95
2018-08-24T11:34:45.999Z,24.16
2018-08-24T11:35:52.438Z,24.08
2018-08-24T11:36:58.919Z,24.17
2018-08-24T11:38:05.266Z,24.28
2018-08-24T11:39:11.592Z,24.33
2018-08-24T11:40:18.175Z,24.34
2018-08-24T11:41:35.787Z,24.19
2018-08-24T11:42:42.069Z,24.16
2018-08-24T11:43:48.981Z,24.05
2018-08-24T11:44:55.017Z,24.04
2018-08-24T11:46:01.331Z,24.15
2018-08-24T11:47:07.623Z,24.04
2018-08-24T11:48:14.166Z,23.92
2018-08-24T11:49:21.808Z,24.01
2018-08-24T11:50:27.909Z,24.01
2018-08-24T11:51:33.888Z,23.83
2018-08-24T11:52:40.231Z,23.67
2018-08-24T11:53:46.531Z,23.82
2018-08-24T11:54:52.535Z,23.92
2018-08-24T11:55:58.837Z,24.00
2018-08-24T11:57:04.791Z,23.87
2018-08-24T11:58:11.040Z,23.64
2018-08-24T11:59:17.342Z,23.78
2018-08-24T12:00:24.124Z,23.67
2018-08-24T12:01:30.449Z,23.72
2018-08-24T12:02:36.705Z,23.65
2018-08-24T12:03:43.051Z,23.59
2018-08-24T12:04:49.364Z,23.57
2018-08-24T12:05:55.636Z,23.72
2018-08-24T12:07:01.843Z,23.79
2018-08-24T12:08:08.245Z,23.75
2018-08-24T12:09:15.236Z,23.78
2018-08-24T12:10:21.752Z,23.65
2018-08-24T12:11:28.617Z,23.55
2018-08-24T12:12:34.910Z,23.41
2018-08-24T12:13:41.392Z,23.38
2018-08-24T12:14:47.396Z,23.46
2018-08-24T12:15:53.672Z,23.30
2018-08-24T12:16:59.773Z,23.21
2018-08-24T12:18:06.019Z,23.07
2018-08-24T12:19:12.126Z,23.07
2018-08-24T12:20:18.447Z,23.30
2018-08-24T12:21:24.867Z,23.18
2018-08-24T12:22:31.364Z,23.02
2018-08-24T12:23:37.440Z,23.03
2018-08-24T12:24:43.796Z,22.78
2018-08-24T12:25:50.089Z,22.68
2018-08-24T12:26:56.281Z,22.64
2018-08-24T12:28:02.913Z,22.22
2018-08-24T12:29:09.197Z,22.07
2018-08-24T12:30:15.357Z,21.88
2018-08-24T12:31:21.636Z,21.74
2018-08-24T12:32:27.719Z,21.44
2018-08-24T12:33:33.751Z,21.25
2018-08-24T12:34:40.108Z,20.98
2018-08-24T12:35:46.722Z,20.74
2018-08-24T12:36:53.011Z,20.85
2018-08-24T12:37:59.336Z,20.56
2018-08-24T12:39:05.677Z,20.60
2018-08-24T12:40:15.550Z,20.51
2018-08-24T12:41:21.741Z,20.53
2018-08-24T12:42:28.374Z,20.32
2018-08-24T12:43:34.509Z,20.36
2018-08-24T12:44:40.604Z,20.30
2018-08-24T12:45:46.896Z,20.22
2018-08-24T12:46:53.851Z,20.34
2018-08-24T12:48:00.404Z,20.21
2018-08-24T12:49:06.739Z,20.36
2018-08-24T12:50:13.137Z,20.34
2018-08-24T12:51:19.330Z,20.24
2018-08-24T12:52:25.588Z,20.14
2018-08-24T12:53:31.887Z,20.07
2018-08-24T12:54:38.176Z,20.03
2018-08-24T12:55:44.216Z,19.91
2018-08-24T12:56:50.691Z,19.97
2018-08-24T12:57:56.804Z,20.01
2018-08-24T12:59:02.996Z,19.92
2018-08-24T13:00:09.380Z,19.96
2018-08-24T13:01:15.370Z,20.01
2018-08-24T13:02:21.764Z,20.08
2018-08-24T13:03:28.165Z,20.25
2018-08-24T13:04:34.481Z,20.45
2018-08-24T13:05:40.717Z,20.49
2018-08-24T13:06:47.492Z,20.60
2018-08-24T13:07:55.499Z,20.60
2018-08-24T13:09:01.466Z,20.54
2018-08-24T13:10:07.266Z,20.52
2018-08-24T13:11:13.693Z,20.67
2018-08-24T13:12:19.609Z,20.82
2018-08-24T13:13:25.992Z,20.91
2018-08-24T13:14:31.968Z,20.97
2018-08-24T13:15:38.336Z,20.78
2018-08-24T13:16:44.253Z,20.68
2018-08-24T13:17:50.867Z,20.85
2018-08-24T13:18:57.184Z,20.88
2018-08-24T13:20:03.677Z,21.01
2018-08-24T13:21:10.430Z,21.09
2018-08-24T13:22:16.750Z,20.92
2018-08-24T13:23:23.037Z,20.98
2018-08-24T13:24:29.345Z,20.96
2018-08-24T13:25:36.914Z,21.13
2018-08-24T13:26:43.161Z,21.19
2018-08-24T13:27:49.408Z,21.03
2018-08-24T13:28:55.703Z,21.24
2018-08-24T13:30:01.943Z,21.30
2018-08-24T13:31:09.064Z,21.35
2018-08-24T13:32:15.399Z,21.25
2018-08-24T13:33:22.176Z,21.16
2018-08-24T13:34:28.515Z,21.00
2018-08-24T13:35:34.837Z,21.11
2018-08-24T13:36:41.121Z,20.89
2018-08-24T13:37:47.326Z,21.06
2018-08-24T13:38:53.593Z,20.77
2018-08-24T13:39:59.977Z,20.77
2018-08-24T13:41:05.947Z,20.69
2018-08-24T13:42:11.982Z,20.75
2018-08-24T13:43:18.307Z,20.63
2018-08-24T13:44:25.010Z,20.56
2018-08-24T13:45:31.691Z,20.61
2018-08-24T13:46:38.660Z,20.30
2018-08-24T13:47:44.635Z,20.13
2018-08-24T13:48:50.493Z,20.28
2018-08-24T13:49:56.772Z,20.26
2018-08-24T13:51:02.992Z,20.12
2018-08-24T13:52:09.424Z,20.15
2018-08-24T13:53:15.212Z,20.03
2018-08-24T13:54:21.617Z,19.86
2018-08-24T13:55:27.622Z,19.87
2018-08-24T13:56:34.509Z,19.68
2018-08-24T13:57:42.128Z,19.93
2018-08-24T13:58:49.164Z,20.15
2018-08-24T13:59:55.532Z,20.38
2018-08-24T14:01:02.062Z,20.42
2018-08-24T14:02:08.352Z,20.21
2018-08-24T14:03:14.368Z,20.19
2018-08-24T14:04:20.814Z,20.27
2018-08-24T14:05:27.187Z,20.32
2018-08-24T14:06:33.563Z,20.29
2018-08-24T14:07:39.906Z,20.29
2018-08-24T14:08:46.216Z,20.27
2018-08-24T14:09:52.529Z,20.31
2018-08-24T14:10:58.872Z,20.16
2018-08-24T14:12:05.176Z,20.21
2018-08-24T14:13:11.215Z,20.11
2018-08-24T14:14:17.891Z,20.19
2018-08-24T14:15:24.221Z,20.19
2018-08-24T14:16:31.263Z,20.12
2018-08-24T14:17:37.620Z,20.23
2018-08-24T14:18:43.517Z,20.30
2018-08-24T14:19:49.512Z,20.28
2018-08-24T14:20:55.858Z,20.24
2018-08-24T14:22:02.397Z,20.08
2018-08-24T14:23:08.831Z,20.22
2018-08-24T14:24:15.739Z,20.29
2018-08-24T14:25:21.900Z,20.35
2018-08-24T14:26:28.229Z,20.37
2018-08-24T14:27:34.745Z,20.35